SBI7520 UTAA-ZWWW
Flight info
| Callsign | SBI7520 |
|---|---|
| Flight time | 3h 18m |
| Altitude | 37000 |
| Route | UTAA N0440F370 URA29D URABA A117 LBA B376 MANAT L141 KAMUD A468 XKC B215 EPDAG EPD18A WW604 WW603 FF25 RW25 ZWWW |
| Aircraft | B738/M-SDGIWZ/S |
Departure
| Time | 2026-04-27 08:55 |
|---|---|
| Airport | Ashgabat International Airport (UTAA) |
Arrival
| Time | 2026-04-27 12:14 |
|---|---|
| Airport | Ürümqi Tianshan International Airport (ZWWW) |
| Time | Latitude | Longitude | Altitude | Speed | Heading |
|---|---|---|---|---|---|
| 2026-04-27 08:37 | 37.96722 | 58.37336 | 699 ft | 0 kts | 128° |
| 2026-04-27 08:50 | 37.96727 | 58.37328 | 699 ft | 2 kts | 128° |
| 2026-04-27 08:51 | 37.96742 | 58.37304 | 699 ft | 4 kts | 128° |
| 2026-04-27 08:51 | 37.96764 | 58.37275 | 699 ft | 3 kts | 185° |
| 2026-04-27 08:51 | 37.96778 | 58.37286 | 699 ft | 0 kts | 219° |
| 2026-04-27 08:51 | 37.96775 | 58.37283 | 699 ft | 1 kts | 219° |
| 2026-04-27 08:52 | 37.96730 | 58.37238 | 699 ft | 14 kts | 206° |
| 2026-04-27 08:52 | 37.96661 | 58.37294 | 699 ft | 14 kts | 128° |
| 2026-04-27 08:52 | 37.96627 | 58.37398 | 699 ft | 12 kts | 55° |
| 2026-04-27 08:52 | 37.96704 | 58.37479 | 699 ft | 16 kts | 38° |
| 2026-04-27 08:53 | 37.96796 | 58.37533 | 699 ft | 14 kts | 351° |
| 2026-04-27 08:53 | 37.96891 | 58.37495 | 699 ft | 13 kts | 341° |
| 2026-04-27 08:53 | 37.96991 | 58.37455 | 699 ft | 16 kts | 342° |
| 2026-04-27 08:53 | 37.97100 | 58.37389 | 699 ft | 18 kts | 323° |
| 2026-04-27 08:54 | 37.97213 | 58.37299 | 699 ft | 18 kts | 351° |
| 2026-04-27 08:54 | 37.97334 | 58.37292 | 699 ft | 18 kts | 314° |
| 2026-04-27 08:54 | 37.97429 | 58.37091 | 699 ft | 55 kts | 299° |
| 2026-04-27 08:54 | 37.97742 | 58.36384 | 699 ft | 125 kts | 300° |
| 2026-04-27 08:55 | 37.98270 | 58.35199 | 704 ft | 179 kts | 300° |
| 2026-04-27 08:55 | 37.98922 | 58.33712 | 930 ft | 208 kts | 300° |
| 2026-04-27 08:55 | 37.99679 | 58.32015 | 1271 ft | 234 kts | 300° |
| 2026-04-27 08:55 | 38.00474 | 58.30205 | 2186 ft | 234 kts | 299° |
| 2026-04-27 08:56 | 38.01269 | 58.28388 | 2735 ft | 246 kts | 298° |
| 2026-04-27 08:56 | 38.02152 | 58.26434 | 3175 ft | 265 kts | 304° |
| 2026-04-27 08:56 | 38.03535 | 58.24824 | 3786 ft | 278 kts | 336° |
| 2026-04-27 08:56 | 38.05391 | 58.24216 | 4605 ft | 279 kts | 352° |
| 2026-04-27 08:57 | 38.09174 | 58.24925 | 5964 ft | 288 kts | 40° |
| 2026-04-27 08:57 | 38.10562 | 58.26710 | 6777 ft | 287 kts | 53° |
| 2026-04-27 08:57 | 38.11566 | 58.28912 | 7338 ft | 292 kts | 77° |
| 2026-04-27 08:58 | 38.11872 | 58.31401 | 8171 ft | 288 kts | 86° |
| 2026-04-27 08:58 | 38.12104 | 58.33984 | 8739 ft | 298 kts | 85° |
| 2026-04-27 08:58 | 38.12374 | 58.36565 | 9446 ft | 300 kts | 84° |
| 2026-04-27 08:58 | 38.12646 | 58.39230 | 10093 ft | 305 kts | 84° |
| 2026-04-27 08:59 | 38.12918 | 58.41937 | 10356 ft | 324 kts | 84° |
| 2026-04-27 08:59 | 38.13219 | 58.44888 | 10483 ft | 345 kts | 84° |
| 2026-04-27 08:59 | 38.13538 | 58.47983 | 10715 ft | 361 kts | 83° |
| 2026-04-27 08:59 | 38.13866 | 58.51163 | 11238 ft | 367 kts | 83° |
| 2026-04-27 09:00 | 38.14198 | 58.54379 | 11755 ft | 373 kts | 83° |
| 2026-04-27 09:00 | 38.14536 | 58.57661 | 12316 ft | 376 kts | 83° |
| 2026-04-27 09:00 | 38.14878 | 58.60983 | 12849 ft | 380 kts | 83° |
| 2026-04-27 09:00 | 38.15219 | 58.64289 | 13423 ft | 382 kts | 83° |
| 2026-04-27 09:01 | 38.15565 | 58.67636 | 13946 ft | 385 kts | 83° |
| 2026-04-27 09:01 | 38.15915 | 58.71012 | 14450 ft | 388 kts | 83° |
| 2026-04-27 09:01 | 38.16272 | 58.74457 | 14942 ft | 391 kts | 83° |
| 2026-04-27 09:01 | 38.16629 | 58.77883 | 15412 ft | 394 kts | 83° |
| 2026-04-27 09:02 | 38.16989 | 58.81334 | 15873 ft | 397 kts | 83° |
| 2026-04-27 09:02 | 38.17353 | 58.84809 | 16317 ft | 400 kts | 83° |
| 2026-04-27 09:02 | 38.17721 | 58.88314 | 16752 ft | 403 kts | 83° |
| 2026-04-27 09:02 | 38.18092 | 58.91839 | 17172 ft | 406 kts | 83° |
| 2026-04-27 09:03 | 38.18467 | 58.95399 | 17585 ft | 409 kts | 83° |
| 2026-04-27 09:03 | 38.18847 | 58.98994 | 17978 ft | 411 kts | 83° |
| 2026-04-27 09:03 | 38.19227 | 59.02577 | 18372 ft | 414 kts | 82° |
| 2026-04-27 09:03 | 38.19613 | 59.06202 | 18757 ft | 416 kts | 82° |
| 2026-04-27 09:04 | 38.20001 | 59.09851 | 19111 ft | 419 kts | 82° |
| 2026-04-27 09:04 | 38.20399 | 59.13572 | 19480 ft | 422 kts | 82° |
| 2026-04-27 09:04 | 38.20793 | 59.17247 | 19828 ft | 424 kts | 82° |
| 2026-04-27 09:04 | 38.21193 | 59.20971 | 20167 ft | 426 kts | 82° |
| 2026-04-27 09:05 | 38.21594 | 59.24692 | 20503 ft | 429 kts | 82° |
| 2026-04-27 09:05 | 38.22000 | 59.28460 | 20823 ft | 431 kts | 82° |
| 2026-04-27 09:05 | 38.22444 | 59.32202 | 21127 ft | 434 kts | 78° |
| 2026-04-27 09:05 | 38.23173 | 59.35954 | 21371 ft | 437 kts | 73° |
| 2026-04-27 09:06 | 38.24027 | 59.39658 | 21613 ft | 440 kts | 73° |
| 2026-04-27 09:06 | 38.24861 | 59.43395 | 21871 ft | 443 kts | 73° |
| 2026-04-27 09:06 | 38.25680 | 59.47173 | 22145 ft | 445 kts | 74° |
| 2026-04-27 09:06 | 38.26503 | 59.50967 | 22409 ft | 447 kts | 73° |
| 2026-04-27 09:07 | 38.27339 | 59.54812 | 22667 ft | 449 kts | 73° |
| 2026-04-27 09:07 | 38.28162 | 59.58605 | 22922 ft | 451 kts | 73° |
| 2026-04-27 09:07 | 38.28995 | 59.62454 | 23182 ft | 452 kts | 73° |
| 2026-04-27 09:07 | 38.29836 | 59.66346 | 23414 ft | 454 kts | 74° |
| 2026-04-27 09:08 | 38.30668 | 59.70208 | 23653 ft | 456 kts | 74° |
| 2026-04-27 09:08 | 38.31504 | 59.74095 | 23889 ft | 457 kts | 74° |
| 2026-04-27 09:08 | 38.32344 | 59.78007 | 24101 ft | 459 kts | 74° |
| 2026-04-27 09:08 | 38.33178 | 59.81897 | 24330 ft | 460 kts | 74° |
| 2026-04-27 09:09 | 38.34025 | 59.85856 | 24549 ft | 462 kts | 74° |
| 2026-04-27 09:09 | 38.34864 | 59.89785 | 24750 ft | 463 kts | 74° |
| 2026-04-27 09:09 | 38.35715 | 59.93778 | 24958 ft | 465 kts | 74° |
| 2026-04-27 09:09 | 38.36561 | 59.97751 | 25151 ft | 466 kts | 74° |
| 2026-04-27 09:10 | 38.37403 | 60.01719 | 25361 ft | 468 kts | 74° |
| 2026-04-27 09:10 | 38.38248 | 60.05705 | 25542 ft | 469 kts | 74° |
| 2026-04-27 09:10 | 38.39096 | 60.09708 | 25728 ft | 471 kts | 74° |
| 2026-04-27 09:10 | 38.39945 | 60.13730 | 25928 ft | 472 kts | 74° |
| 2026-04-27 09:11 | 38.40803 | 60.17797 | 26117 ft | 473 kts | 74° |
| 2026-04-27 09:11 | 38.41650 | 60.21823 | 26265 ft | 475 kts | 74° |
| 2026-04-27 09:11 | 38.42500 | 60.25872 | 26457 ft | 476 kts | 74° |
| 2026-04-27 09:11 | 38.43353 | 60.29944 | 26621 ft | 477 kts | 74° |
| 2026-04-27 09:12 | 38.44204 | 60.34023 | 26783 ft | 478 kts | 74° |
| 2026-04-27 09:12 | 38.45059 | 60.38134 | 26979 ft | 479 kts | 74° |
| 2026-04-27 09:12 | 38.45908 | 60.42230 | 27116 ft | 480 kts | 74° |
| 2026-04-27 09:12 | 38.46756 | 60.46337 | 27263 ft | 482 kts | 74° |
| 2026-04-27 09:13 | 38.47612 | 60.50478 | 27443 ft | 482 kts | 74° |
| 2026-04-27 09:13 | 38.48465 | 60.54580 | 27527 ft | 485 kts | 74° |
| 2026-04-27 09:13 | 38.49338 | 60.58760 | 27719 ft | 485 kts | 73° |
| 2026-04-27 09:13 | 38.50211 | 60.62933 | 27889 ft | 485 kts | 73° |
| 2026-04-27 09:14 | 38.51069 | 60.67059 | 27977 ft | 488 kts | 74° |
| 2026-04-27 09:14 | 38.51928 | 60.71251 | 28159 ft | 487 kts | 75° |
| 2026-04-27 09:14 | 38.52774 | 60.75431 | 28250 ft | 489 kts | 75° |
| 2026-04-27 09:14 | 38.53622 | 60.79612 | 28419 ft | 489 kts | 75° |
| 2026-04-27 09:15 | 38.54484 | 60.83854 | 28534 ft | 490 kts | 74° |
| 2026-04-27 09:15 | 38.55336 | 60.88023 | 28696 ft | 490 kts | 74° |
| 2026-04-27 09:15 | 38.56191 | 60.92210 | 28790 ft | 491 kts | 74° |
| 2026-04-27 09:15 | 38.57049 | 60.96425 | 28915 ft | 492 kts | 74° |
| 2026-04-27 09:16 | 38.57912 | 61.00673 | 29022 ft | 493 kts | 74° |
| 2026-04-27 09:16 | 38.59632 | 61.09162 | 29227 ft | 495 kts | 74° |
| 2026-04-27 09:17 | 38.61360 | 61.17656 | 29381 ft | 498 kts | 74° |
| 2026-04-27 09:17 | 38.63091 | 61.26267 | 29563 ft | 500 kts | 74° |
| 2026-04-27 09:17 | 38.63941 | 61.30547 | 29674 ft | 501 kts | 74° |
| 2026-04-27 09:18 | 38.64796 | 61.34866 | 29782 ft | 502 kts | 74° |
| 2026-04-27 09:18 | 38.65607 | 61.39183 | 29909 ft | 502 kts | 77° |
| 2026-04-27 09:18 | 38.66226 | 61.43586 | 30018 ft | 503 kts | 80° |
| 2026-04-27 09:18 | 38.66739 | 61.47981 | 30177 ft | 502 kts | 80° |
| 2026-04-27 09:19 | 38.67263 | 61.52386 | 30424 ft | 499 kts | 79° |
| 2026-04-27 09:19 | 38.67816 | 61.56778 | 30643 ft | 497 kts | 79° |
| 2026-04-27 09:19 | 38.68375 | 61.61118 | 30729 ft | 498 kts | 79° |
| 2026-04-27 09:19 | 38.68927 | 61.65473 | 30853 ft | 498 kts | 80° |
| 2026-04-27 09:20 | 38.69466 | 61.69832 | 30961 ft | 499 kts | 80° |
| 2026-04-27 09:20 | 38.70531 | 61.78625 | 31149 ft | 500 kts | 80° |
| 2026-04-27 09:20 | 38.71071 | 61.83018 | 31262 ft | 500 kts | 80° |
| 2026-04-27 09:21 | 38.71618 | 61.87403 | 31380 ft | 500 kts | 80° |
| 2026-04-27 09:21 | 38.72713 | 61.96147 | 31607 ft | 499 kts | 80° |
| 2026-04-27 09:21 | 38.73251 | 62.00528 | 31792 ft | 498 kts | 80° |
| 2026-04-27 09:22 | 38.73783 | 62.04900 | 31981 ft | 496 kts | 80° |
| 2026-04-27 09:22 | 38.74310 | 62.09227 | 32098 ft | 496 kts | 80° |
| 2026-04-27 09:22 | 38.74838 | 62.13583 | 32220 ft | 496 kts | 80° |
| 2026-04-27 09:22 | 38.75365 | 62.17935 | 32321 ft | 496 kts | 80° |
| 2026-04-27 09:23 | 38.75889 | 62.22289 | 32412 ft | 496 kts | 80° |
| 2026-04-27 09:23 | 38.76410 | 62.26662 | 32538 ft | 496 kts | 80° |
| 2026-04-27 09:23 | 38.76925 | 62.31028 | 32652 ft | 496 kts | 80° |
| 2026-04-27 09:23 | 38.77439 | 62.35398 | 32755 ft | 496 kts | 80° |
| 2026-04-27 09:24 | 38.77952 | 62.39711 | 32854 ft | 496 kts | 80° |
| 2026-04-27 09:24 | 38.78472 | 62.44087 | 32997 ft | 495 kts | 80° |
| 2026-04-27 09:24 | 38.78991 | 62.48472 | 33114 ft | 495 kts | 80° |
| 2026-04-27 09:25 | 38.80006 | 62.57182 | 33300 ft | 496 kts | 80° |
| 2026-04-27 09:25 | 38.80509 | 62.61526 | 33404 ft | 496 kts | 80° |
| 2026-04-27 09:25 | 38.81015 | 62.65892 | 33502 ft | 496 kts | 81° |
| 2026-04-27 09:26 | 38.82030 | 62.74618 | 33683 ft | 495 kts | 80° |
| 2026-04-27 09:26 | 38.82534 | 62.78981 | 33789 ft | 495 kts | 81° |
| 2026-04-27 09:26 | 38.83028 | 62.83282 | 33894 ft | 494 kts | 80° |
| 2026-04-27 09:27 | 38.84032 | 62.92029 | 34079 ft | 494 kts | 80° |
| 2026-04-27 09:27 | 38.85003 | 63.00703 | 34232 ft | 495 kts | 81° |
| 2026-04-27 09:28 | 38.85938 | 63.09443 | 34406 ft | 495 kts | 81° |
| 2026-04-27 09:28 | 38.86879 | 63.18164 | 34592 ft | 494 kts | 81° |
| 2026-04-27 09:29 | 38.87838 | 63.26833 | 34778 ft | 494 kts | 80° |
| 2026-04-27 09:29 | 38.88787 | 63.35531 | 34955 ft | 493 kts | 81° |
| 2026-04-27 09:29 | 38.89267 | 63.39888 | 35059 ft | 493 kts | 81° |
| 2026-04-27 09:30 | 38.89738 | 63.44225 | 35151 ft | 493 kts | 81° |
| 2026-04-27 09:30 | 38.90671 | 63.52900 | 35334 ft | 492 kts | 80° |
| 2026-04-27 09:31 | 38.92370 | 63.61367 | 35499 ft | 488 kts | 67° |
| 2026-04-27 09:31 | 38.94726 | 63.69454 | 35684 ft | 487 kts | 68° |
| 2026-04-27 09:32 | 38.97043 | 63.77632 | 35860 ft | 485 kts | 68° |
| 2026-04-27 09:32 | 38.99365 | 63.85738 | 36035 ft | 483 kts | 68° |
| 2026-04-27 09:33 | 39.01712 | 63.93780 | 36175 ft | 482 kts | 67° |
| 2026-04-27 09:33 | 39.04109 | 64.01807 | 36314 ft | 482 kts | 66° |
| 2026-04-27 09:34 | 39.06494 | 64.09799 | 36446 ft | 481 kts | 67° |
| 2026-04-27 09:34 | 39.08859 | 64.17828 | 36581 ft | 480 kts | 67° |
| 2026-04-27 09:35 | 39.11253 | 64.25841 | 36708 ft | 479 kts | 66° |
| 2026-04-27 09:35 | 39.13656 | 64.33816 | 36865 ft | 478 kts | 66° |
| 2026-04-27 09:36 | 39.16084 | 64.41709 | 37038 ft | 476 kts | 65° |
| 2026-04-27 09:36 | 39.18537 | 64.49644 | 37047 ft | 478 kts | 66° |
| 2026-04-27 09:37 | 39.20982 | 64.57626 | 37045 ft | 479 kts | 66° |
| 2026-04-27 09:37 | 39.23338 | 64.65591 | 37046 ft | 477 kts | 68° |
| 2026-04-27 09:38 | 39.25684 | 64.73611 | 37047 ft | 477 kts | 67° |
| 2026-04-27 09:38 | 39.28055 | 64.81574 | 37048 ft | 479 kts | 67° |
| 2026-04-27 09:39 | 39.30474 | 64.89552 | 37047 ft | 479 kts | 67° |
| 2026-04-27 09:39 | 39.32883 | 64.97525 | 37047 ft | 476 kts | 68° |
| 2026-04-27 09:40 | 39.35263 | 65.05499 | 37047 ft | 475 kts | 68° |
| 2026-04-27 09:40 | 39.37603 | 65.13450 | 37047 ft | 475 kts | 68° |
| 2026-04-27 09:41 | 39.39934 | 65.21386 | 37047 ft | 475 kts | 68° |
| 2026-04-27 09:41 | 39.42283 | 65.29382 | 37047 ft | 476 kts | 68° |
| 2026-04-27 09:42 | 39.44622 | 65.37367 | 37047 ft | 476 kts | 68° |
| 2026-04-27 09:42 | 39.46950 | 65.45328 | 37047 ft | 476 kts | 68° |
| 2026-04-27 09:43 | 39.49282 | 65.53328 | 37047 ft | 476 kts | 68° |
| 2026-04-27 09:43 | 39.51604 | 65.61317 | 37047 ft | 475 kts | 68° |
| 2026-04-27 09:44 | 39.53916 | 65.69295 | 37047 ft | 475 kts | 69° |
| 2026-04-27 09:44 | 39.56227 | 65.77289 | 37047 ft | 475 kts | 69° |
| 2026-04-27 09:45 | 39.58539 | 65.85317 | 37047 ft | 475 kts | 69° |
| 2026-04-27 09:45 | 39.60833 | 65.93301 | 37047 ft | 476 kts | 69° |
| 2026-04-27 09:46 | 39.63144 | 66.01365 | 37047 ft | 476 kts | 69° |
| 2026-04-27 09:46 | 39.65440 | 66.09342 | 37047 ft | 476 kts | 69° |
| 2026-04-27 09:47 | 39.67750 | 66.17396 | 37047 ft | 476 kts | 69° |
| 2026-04-27 09:47 | 39.70034 | 66.25390 | 37047 ft | 475 kts | 69° |
| 2026-04-27 09:48 | 39.72328 | 66.33440 | 37047 ft | 475 kts | 69° |
| 2026-04-27 09:48 | 39.74643 | 66.41457 | 37046 ft | 475 kts | 66° |
| 2026-04-27 09:49 | 39.77465 | 66.49185 | 37047 ft | 475 kts | 62° |
| 2026-04-27 09:49 | 39.80326 | 66.56902 | 37047 ft | 475 kts | 63° |
| 2026-04-27 09:50 | 39.83139 | 66.64625 | 37047 ft | 475 kts | 63° |
| 2026-04-27 09:50 | 39.85960 | 66.72362 | 37047 ft | 475 kts | 64° |
| 2026-04-27 09:51 | 39.88788 | 66.80158 | 37046 ft | 475 kts | 64° |
| 2026-04-27 09:51 | 39.91598 | 66.87929 | 37019 ft | 475 kts | 64° |
| 2026-04-27 09:52 | 39.94395 | 66.95682 | 37020 ft | 475 kts | 64° |
| 2026-04-27 09:52 | 39.97182 | 67.03429 | 37020 ft | 475 kts | 64° |
| 2026-04-27 09:53 | 39.99970 | 67.11200 | 37020 ft | 476 kts | 64° |
| 2026-04-27 09:53 | 40.02776 | 67.19044 | 37019 ft | 476 kts | 64° |
| 2026-04-27 09:54 | 40.05557 | 67.26838 | 37020 ft | 475 kts | 64° |
| 2026-04-27 09:54 | 40.08318 | 67.34598 | 37020 ft | 475 kts | 64° |
| 2026-04-27 09:55 | 40.11098 | 67.42435 | 37020 ft | 475 kts | 64° |
| 2026-04-27 09:55 | 40.15255 | 67.54184 | 37020 ft | 475 kts | 64° |
| 2026-04-27 09:56 | 40.18008 | 67.61996 | 37024 ft | 475 kts | 64° |
| 2026-04-27 09:56 | 40.20781 | 67.69791 | 37035 ft | 475 kts | 63° |
| 2026-04-27 09:57 | 40.23640 | 67.77571 | 37055 ft | 475 kts | 63° |
| 2026-04-27 09:57 | 40.26489 | 67.85396 | 37067 ft | 475 kts | 63° |
| 2026-04-27 09:58 | 40.29312 | 67.93175 | 37074 ft | 475 kts | 63° |
| 2026-04-27 09:58 | 40.32137 | 68.00980 | 37074 ft | 475 kts | 63° |
| 2026-04-27 09:59 | 40.34977 | 68.08807 | 37074 ft | 475 kts | 63° |
| 2026-04-27 09:59 | 40.37825 | 68.16596 | 37074 ft | 475 kts | 63° |
| 2026-04-27 10:00 | 40.40655 | 68.24381 | 37074 ft | 475 kts | 63° |
| 2026-04-27 10:00 | 40.43480 | 68.32173 | 37074 ft | 475 kts | 63° |
| 2026-04-27 10:01 | 40.46318 | 68.40022 | 37074 ft | 475 kts | 63° |
| 2026-04-27 10:01 | 40.49134 | 68.47832 | 37074 ft | 475 kts | 63° |
| 2026-04-27 10:02 | 40.51921 | 68.55659 | 37073 ft | 476 kts | 65° |
| 2026-04-27 10:02 | 40.54153 | 68.63845 | 37074 ft | 476 kts | 70° |
| 2026-04-27 10:03 | 40.56278 | 68.72015 | 37074 ft | 476 kts | 70° |
| 2026-04-27 10:03 | 40.58680 | 68.80119 | 37075 ft | 475 kts | 63° |
| 2026-04-27 10:04 | 40.61585 | 68.87874 | 37074 ft | 475 kts | 63° |
| 2026-04-27 10:04 | 40.64417 | 68.95697 | 37074 ft | 474 kts | 63° |
| 2026-04-27 10:05 | 40.67241 | 69.03512 | 37074 ft | 470 kts | 62° |
| 2026-04-27 10:05 | 40.70029 | 69.11240 | 37074 ft | 466 kts | 61° |
| 2026-04-27 10:06 | 40.72777 | 69.18915 | 37074 ft | 464 kts | 61° |
| 2026-04-27 10:06 | 40.74152 | 69.22767 | 36960 ft | 468 kts | 61° |
| 2026-04-27 10:06 | 40.75525 | 69.26588 | 36807 ft | 466 kts | 61° |
| 2026-04-27 10:07 | 40.78293 | 69.34284 | 36804 ft | 462 kts | 61° |
| 2026-04-27 10:07 | 40.81040 | 69.41923 | 36804 ft | 465 kts | 61° |
| 2026-04-27 10:08 | 40.83780 | 69.49664 | 36803 ft | 466 kts | 62° |
| 2026-04-27 10:08 | 40.86505 | 69.57420 | 36803 ft | 466 kts | 61° |
| 2026-04-27 10:09 | 40.89226 | 69.65112 | 36804 ft | 465 kts | 62° |
| 2026-04-27 10:09 | 40.91969 | 69.72865 | 36803 ft | 466 kts | 62° |
| 2026-04-27 10:10 | 40.94678 | 69.80605 | 36802 ft | 465 kts | 62° |
| 2026-04-27 10:10 | 40.97374 | 69.88368 | 36804 ft | 465 kts | 62° |
| 2026-04-27 10:11 | 41.00079 | 69.96075 | 36803 ft | 466 kts | 62° |
| 2026-04-27 10:11 | 41.02820 | 70.03873 | 36804 ft | 467 kts | 62° |
| 2026-04-27 10:12 | 41.05528 | 70.11692 | 36804 ft | 468 kts | 62° |
| 2026-04-27 10:12 | 41.08202 | 70.19550 | 36802 ft | 471 kts | 64° |
| 2026-04-27 10:13 | 41.10009 | 70.27847 | 36804 ft | 477 kts | 78° |
| 2026-04-27 10:13 | 41.10677 | 70.36668 | 36804 ft | 479 kts | 82° |
| 2026-04-27 10:14 | 41.11349 | 70.45445 | 36804 ft | 479 kts | 81° |
| 2026-04-27 10:14 | 41.12007 | 70.54211 | 36803 ft | 479 kts | 82° |
| 2026-04-27 10:15 | 41.12641 | 70.62992 | 36804 ft | 479 kts | 81° |
| 2026-04-27 10:15 | 41.13268 | 70.71781 | 36803 ft | 479 kts | 82° |
| 2026-04-27 10:16 | 41.13879 | 70.80524 | 36804 ft | 479 kts | 82° |
| 2026-04-27 10:16 | 41.14486 | 70.89333 | 36804 ft | 478 kts | 83° |
| 2026-04-27 10:17 | 41.15107 | 70.98026 | 36803 ft | 475 kts | 84° |
| 2026-04-27 10:17 | 41.15731 | 71.06717 | 36803 ft | 470 kts | 84° |
| 2026-04-27 10:18 | 41.16325 | 71.15330 | 36803 ft | 470 kts | 84° |
| 2026-04-27 10:18 | 41.16910 | 71.23933 | 36804 ft | 471 kts | 85° |
| 2026-04-27 10:19 | 41.17425 | 71.32604 | 36803 ft | 473 kts | 86° |
| 2026-04-27 10:19 | 41.17928 | 71.41248 | 36803 ft | 471 kts | 85° |
| 2026-04-27 10:20 | 41.18435 | 71.49887 | 36804 ft | 471 kts | 85° |
| 2026-04-27 10:20 | 41.18956 | 71.58579 | 36803 ft | 471 kts | 85° |
| 2026-04-27 10:21 | 41.19485 | 71.67202 | 36804 ft | 471 kts | 85° |
| 2026-04-27 10:21 | 41.20003 | 71.75853 | 36832 ft | 470 kts | 85° |
| 2026-04-27 10:22 | 41.20302 | 71.80112 | 37048 ft | 466 kts | 84° |
| 2026-04-27 10:22 | 41.20605 | 71.84370 | 37049 ft | 468 kts | 85° |
| 2026-04-27 10:22 | 41.21116 | 71.92989 | 37047 ft | 471 kts | 86° |
| 2026-04-27 10:23 | 41.21580 | 72.01670 | 37047 ft | 472 kts | 85° |
| 2026-04-27 10:23 | 41.22126 | 72.10351 | 37046 ft | 471 kts | 85° |
| 2026-04-27 10:24 | 41.22659 | 72.18956 | 37048 ft | 471 kts | 85° |
| 2026-04-27 10:24 | 41.23162 | 72.27621 | 37047 ft | 472 kts | 85° |
| 2026-04-27 10:25 | 41.23659 | 72.36306 | 37046 ft | 472 kts | 85° |
| 2026-04-27 10:25 | 41.24139 | 72.44978 | 37048 ft | 471 kts | 85° |
| 2026-04-27 10:26 | 41.24609 | 72.53629 | 37046 ft | 472 kts | 85° |
| 2026-04-27 10:26 | 41.25084 | 72.62334 | 37046 ft | 471 kts | 85° |
| 2026-04-27 10:27 | 41.25547 | 72.70950 | 37047 ft | 470 kts | 86° |
| 2026-04-27 10:27 | 41.25998 | 72.79584 | 37046 ft | 471 kts | 86° |
| 2026-04-27 10:28 | 41.26437 | 72.88259 | 37047 ft | 471 kts | 86° |
| 2026-04-27 10:28 | 41.26889 | 72.96971 | 37011 ft | 472 kts | 86° |
| 2026-04-27 10:29 | 41.27335 | 73.05625 | 36937 ft | 470 kts | 86° |
| 2026-04-27 10:29 | 41.27762 | 73.14267 | 36939 ft | 470 kts | 86° |
| 2026-04-27 10:30 | 41.28170 | 73.22732 | 36939 ft | 472 kts | 86° |
| 2026-04-27 10:30 | 41.28531 | 73.31412 | 36939 ft | 472 kts | 87° |
| 2026-04-27 10:31 | 41.28865 | 73.40107 | 36939 ft | 470 kts | 87° |
| 2026-04-27 10:31 | 41.29216 | 73.48808 | 36938 ft | 471 kts | 86° |
| 2026-04-27 10:32 | 41.29568 | 73.57442 | 36937 ft | 472 kts | 86° |
| 2026-04-27 10:32 | 41.29947 | 73.66164 | 36937 ft | 471 kts | 87° |
| 2026-04-27 10:33 | 41.30320 | 73.74792 | 36938 ft | 470 kts | 87° |
| 2026-04-27 10:33 | 41.30712 | 73.83491 | 36939 ft | 472 kts | 87° |
| 2026-04-27 10:34 | 41.31079 | 73.92184 | 36937 ft | 471 kts | 87° |
| 2026-04-27 10:34 | 41.31502 | 74.00852 | 36938 ft | 471 kts | 86° |
| 2026-04-27 10:35 | 41.32108 | 74.09483 | 36939 ft | 471 kts | 84° |
| 2026-04-27 10:35 | 41.32808 | 74.18133 | 36939 ft | 472 kts | 84° |
| 2026-04-27 10:36 | 41.33469 | 74.26782 | 36952 ft | 471 kts | 84° |
| 2026-04-27 10:36 | 41.34043 | 74.35468 | 36969 ft | 472 kts | 85° |
| 2026-04-27 10:37 | 41.34592 | 74.44083 | 36990 ft | 470 kts | 84° |
| 2026-04-27 10:37 | 41.35165 | 74.52760 | 37016 ft | 472 kts | 85° |
| 2026-04-27 10:38 | 41.35732 | 74.61432 | 37037 ft | 471 kts | 84° |
| 2026-04-27 10:38 | 41.36298 | 74.70077 | 37046 ft | 471 kts | 85° |
| 2026-04-27 10:39 | 41.36924 | 74.78782 | 37046 ft | 471 kts | 84° |
| 2026-04-27 10:39 | 41.37569 | 74.87410 | 37048 ft | 471 kts | 85° |
| 2026-04-27 10:40 | 41.38156 | 74.96034 | 37047 ft | 470 kts | 85° |
| 2026-04-27 10:40 | 41.38723 | 75.04687 | 37047 ft | 471 kts | 84° |
| 2026-04-27 10:41 | 41.39285 | 75.13359 | 37046 ft | 472 kts | 85° |
| 2026-04-27 10:41 | 41.39848 | 75.22082 | 37056 ft | 471 kts | 84° |
| 2026-04-27 10:42 | 41.40403 | 75.30714 | 37068 ft | 471 kts | 85° |
| 2026-04-27 10:42 | 41.40940 | 75.39408 | 37081 ft | 471 kts | 85° |
| 2026-04-27 10:43 | 41.41442 | 75.48051 | 37091 ft | 470 kts | 85° |
| 2026-04-27 10:43 | 41.41959 | 75.56703 | 37098 ft | 471 kts | 84° |
| 2026-04-27 10:44 | 41.42489 | 75.65417 | 37100 ft | 471 kts | 86° |
| 2026-04-27 10:44 | 41.42907 | 75.74051 | 37101 ft | 470 kts | 86° |
| 2026-04-27 10:45 | 41.43348 | 75.82762 | 37101 ft | 471 kts | 86° |
| 2026-04-27 10:45 | 41.43800 | 75.91428 | 37100 ft | 471 kts | 86° |
| 2026-04-27 10:46 | 41.44278 | 76.00124 | 37101 ft | 472 kts | 85° |
| 2026-04-27 10:46 | 41.44830 | 76.08778 | 37100 ft | 471 kts | 85° |
| 2026-04-27 10:47 | 41.45355 | 76.17419 | 37100 ft | 470 kts | 85° |
| 2026-04-27 10:47 | 41.45836 | 76.26113 | 37102 ft | 471 kts | 85° |
| 2026-04-27 10:48 | 41.46312 | 76.34829 | 37102 ft | 471 kts | 85° |
| 2026-04-27 10:48 | 41.46785 | 76.43490 | 37101 ft | 470 kts | 85° |
| 2026-04-27 10:49 | 41.47242 | 76.52187 | 37101 ft | 471 kts | 85° |
| 2026-04-27 10:49 | 41.47686 | 76.60860 | 37101 ft | 471 kts | 85° |
| 2026-04-27 10:50 | 41.48074 | 76.69569 | 37100 ft | 470 kts | 87° |
| 2026-04-27 10:50 | 41.48441 | 76.78226 | 37102 ft | 471 kts | 86° |
| 2026-04-27 10:51 | 41.48833 | 76.86939 | 37100 ft | 471 kts | 86° |
| 2026-04-27 10:51 | 41.49232 | 76.95637 | 37101 ft | 470 kts | 86° |
| 2026-04-27 10:52 | 41.49677 | 77.04288 | 37101 ft | 469 kts | 85° |
| 2026-04-27 10:52 | 41.50135 | 77.12903 | 37100 ft | 470 kts | 85° |
| 2026-04-27 10:53 | 41.50751 | 77.25890 | 37101 ft | 468 kts | 85° |
| 2026-04-27 10:54 | 41.51138 | 77.34538 | 37101 ft | 469 kts | 86° |
| 2026-04-27 10:54 | 41.51518 | 77.43192 | 37101 ft | 469 kts | 85° |
| 2026-04-27 10:55 | 41.51919 | 77.51849 | 37101 ft | 468 kts | 85° |
| 2026-04-27 10:55 | 41.52288 | 77.60510 | 37102 ft | 469 kts | 85° |
| 2026-04-27 10:56 | 41.52644 | 77.69179 | 37100 ft | 470 kts | 86° |
| 2026-04-27 10:56 | 41.52997 | 77.77867 | 37101 ft | 467 kts | 86° |
| 2026-04-27 10:57 | 41.53330 | 77.86466 | 37101 ft | 468 kts | 86° |
| 2026-04-27 10:57 | 41.53674 | 77.95169 | 37100 ft | 468 kts | 86° |
| 2026-04-27 10:58 | 41.54013 | 78.03803 | 37100 ft | 468 kts | 86° |
| 2026-04-27 10:58 | 41.54336 | 78.12423 | 37101 ft | 469 kts | 86° |
| 2026-04-27 10:59 | 41.54648 | 78.21107 | 37101 ft | 469 kts | 86° |
| 2026-04-27 10:59 | 41.54960 | 78.29755 | 37100 ft | 467 kts | 86° |
| 2026-04-27 11:00 | 41.55417 | 78.42738 | 37100 ft | 469 kts | 86° |
| 2026-04-27 11:00 | 41.55722 | 78.51379 | 37101 ft | 468 kts | 86° |
| 2026-04-27 11:01 | 41.56000 | 78.60033 | 37102 ft | 468 kts | 86° |
| 2026-04-27 11:01 | 41.56295 | 78.68700 | 37100 ft | 468 kts | 86° |
| 2026-04-27 11:02 | 41.56572 | 78.77417 | 37102 ft | 469 kts | 87° |
| 2026-04-27 11:02 | 41.56844 | 78.86098 | 37100 ft | 469 kts | 86° |
| 2026-04-27 11:03 | 41.57154 | 78.94724 | 37101 ft | 467 kts | 86° |
| 2026-04-27 11:03 | 41.57494 | 79.03370 | 37102 ft | 467 kts | 86° |
| 2026-04-27 11:04 | 41.57851 | 79.11977 | 37100 ft | 467 kts | 85° |
| 2026-04-27 11:04 | 41.58190 | 79.20636 | 37100 ft | 464 kts | 85° |
| 2026-04-27 11:05 | 41.58526 | 79.29202 | 37102 ft | 464 kts | 85° |
| 2026-04-27 11:05 | 41.58894 | 79.37790 | 37100 ft | 465 kts | 85° |
| 2026-04-27 11:06 | 41.59227 | 79.46407 | 37100 ft | 466 kts | 85° |
| 2026-04-27 11:06 | 41.59541 | 79.54993 | 37102 ft | 465 kts | 85° |
| 2026-04-27 11:07 | 41.59874 | 79.63644 | 37100 ft | 466 kts | 85° |
| 2026-04-27 11:07 | 41.60200 | 79.72273 | 37100 ft | 465 kts | 86° |
| 2026-04-27 11:08 | 41.60516 | 79.80872 | 37100 ft | 464 kts | 86° |
| 2026-04-27 11:08 | 41.60822 | 79.89466 | 37100 ft | 466 kts | 86° |
| 2026-04-27 11:09 | 41.61133 | 79.98074 | 37093 ft | 465 kts | 86° |
| 2026-04-27 11:09 | 41.61414 | 80.06686 | 37084 ft | 463 kts | 86° |
| 2026-04-27 11:10 | 41.61675 | 80.15213 | 37076 ft | 464 kts | 86° |
| 2026-04-27 11:10 | 41.61979 | 80.23848 | 37073 ft | 465 kts | 85° |
| 2026-04-27 11:11 | 41.62331 | 80.32445 | 37073 ft | 463 kts | 85° |
| 2026-04-27 11:11 | 41.62646 | 80.40997 | 37073 ft | 464 kts | 85° |
| 2026-04-27 11:12 | 41.62926 | 80.49640 | 37074 ft | 465 kts | 85° |
| 2026-04-27 11:12 | 41.63197 | 80.58203 | 37072 ft | 463 kts | 85° |
| 2026-04-27 11:13 | 41.63448 | 80.66821 | 37073 ft | 465 kts | 86° |
| 2026-04-27 11:13 | 41.63692 | 80.75475 | 37074 ft | 465 kts | 86° |
| 2026-04-27 11:14 | 41.63954 | 80.84050 | 37074 ft | 465 kts | 86° |
| 2026-04-27 11:14 | 41.64173 | 80.92654 | 37074 ft | 466 kts | 86° |
| 2026-04-27 11:15 | 41.64399 | 81.01327 | 37072 ft | 465 kts | 85° |
| 2026-04-27 11:15 | 41.64612 | 81.09892 | 37074 ft | 464 kts | 84° |
| 2026-04-27 11:16 | 41.64816 | 81.18496 | 37075 ft | 464 kts | 84° |
| 2026-04-27 11:16 | 41.64972 | 81.27073 | 37074 ft | 463 kts | 85° |
| 2026-04-27 11:17 | 41.65134 | 81.35695 | 37073 ft | 462 kts | 84° |
| 2026-04-27 11:17 | 41.65316 | 81.44245 | 37074 ft | 464 kts | 84° |
| 2026-04-27 11:18 | 41.65496 | 81.52815 | 37073 ft | 463 kts | 84° |
| 2026-04-27 11:18 | 41.65654 | 81.61443 | 37074 ft | 463 kts | 84° |
| 2026-04-27 11:19 | 41.65837 | 81.70022 | 37073 ft | 463 kts | 85° |
| 2026-04-27 11:19 | 41.66001 | 81.78577 | 37074 ft | 463 kts | 85° |
| 2026-04-27 11:20 | 41.66162 | 81.87190 | 37074 ft | 464 kts | 85° |
| 2026-04-27 11:20 | 41.66320 | 81.95807 | 37072 ft | 464 kts | 85° |
| 2026-04-27 11:21 | 41.66470 | 82.04381 | 37074 ft | 462 kts | 85° |
| 2026-04-27 11:21 | 41.66621 | 82.12922 | 37074 ft | 461 kts | 85° |
| 2026-04-27 11:22 | 41.66780 | 82.21523 | 37074 ft | 463 kts | 85° |
| 2026-04-27 11:22 | 41.66917 | 82.30103 | 37073 ft | 464 kts | 85° |
| 2026-04-27 11:23 | 41.67029 | 82.38668 | 37073 ft | 462 kts | 85° |
| 2026-04-27 11:23 | 41.67162 | 82.47244 | 37074 ft | 462 kts | 85° |
| 2026-04-27 11:24 | 41.67266 | 82.55818 | 37075 ft | 464 kts | 85° |
| 2026-04-27 11:24 | 41.67374 | 82.64458 | 37065 ft | 462 kts | 85° |
| 2026-04-27 11:25 | 41.67482 | 82.73010 | 37056 ft | 462 kts | 85° |
| 2026-04-27 11:25 | 41.67788 | 82.81541 | 37040 ft | 458 kts | 74° |
| 2026-04-27 11:26 | 41.68781 | 82.85545 | 37056 ft | 449 kts | 61° |
| 2026-04-27 11:26 | 41.70183 | 82.89271 | 37043 ft | 447 kts | 56° |
| 2026-04-27 11:26 | 41.73418 | 82.96308 | 37046 ft | 447 kts | 53° |
| 2026-04-27 11:27 | 41.76657 | 83.03339 | 37048 ft | 446 kts | 54° |
| 2026-04-27 11:27 | 41.79911 | 83.10402 | 37046 ft | 446 kts | 54° |
| 2026-04-27 11:28 | 41.83182 | 83.17440 | 37048 ft | 446 kts | 54° |
| 2026-04-27 11:28 | 41.86453 | 83.24469 | 37047 ft | 446 kts | 54° |
| 2026-04-27 11:29 | 41.89704 | 83.31561 | 37047 ft | 447 kts | 54° |
| 2026-04-27 11:29 | 41.92937 | 83.38633 | 37047 ft | 446 kts | 54° |
| 2026-04-27 11:30 | 41.96199 | 83.45697 | 37047 ft | 445 kts | 53° |
| 2026-04-27 11:30 | 41.99463 | 83.52731 | 37048 ft | 446 kts | 54° |
| 2026-04-27 11:31 | 42.02695 | 83.59812 | 37046 ft | 446 kts | 54° |
| 2026-04-27 11:31 | 42.05944 | 83.66902 | 37047 ft | 446 kts | 54° |
| 2026-04-27 11:32 | 42.09197 | 83.74000 | 37046 ft | 447 kts | 54° |
| 2026-04-27 11:32 | 42.12427 | 83.81149 | 37046 ft | 447 kts | 54° |
| 2026-04-27 11:33 | 42.15666 | 83.88255 | 37047 ft | 446 kts | 54° |
| 2026-04-27 11:33 | 42.18901 | 83.95303 | 37046 ft | 446 kts | 54° |
| 2026-04-27 11:34 | 42.22161 | 84.02408 | 37046 ft | 444 kts | 52° |
| 2026-04-27 11:34 | 42.25646 | 84.09206 | 37047 ft | 445 kts | 51° |
| 2026-04-27 11:35 | 42.29148 | 84.16078 | 37048 ft | 446 kts | 52° |
| 2026-04-27 11:35 | 42.32636 | 84.22980 | 37045 ft | 444 kts | 51° |
| 2026-04-27 11:36 | 42.36126 | 84.29847 | 37046 ft | 443 kts | 51° |
| 2026-04-27 11:36 | 42.39576 | 84.36704 | 37047 ft | 444 kts | 51° |
| 2026-04-27 11:37 | 42.43050 | 84.43609 | 37046 ft | 444 kts | 51° |
| 2026-04-27 11:37 | 42.46521 | 84.50472 | 37048 ft | 445 kts | 51° |
| 2026-04-27 11:38 | 42.49995 | 84.57376 | 37047 ft | 444 kts | 51° |
| 2026-04-27 11:38 | 42.53424 | 84.64305 | 37046 ft | 445 kts | 52° |
| 2026-04-27 11:39 | 42.56856 | 84.71256 | 37047 ft | 444 kts | 52° |
| 2026-04-27 11:39 | 42.60340 | 84.78193 | 37047 ft | 444 kts | 52° |
| 2026-04-27 11:40 | 42.63784 | 84.85113 | 37048 ft | 445 kts | 52° |
| 2026-04-27 11:40 | 42.67239 | 84.92071 | 37046 ft | 444 kts | 52° |
| 2026-04-27 11:41 | 42.70672 | 84.98986 | 37047 ft | 445 kts | 52° |
| 2026-04-27 11:41 | 42.74137 | 85.06026 | 37046 ft | 449 kts | 52° |
| 2026-04-27 11:42 | 42.77609 | 85.13101 | 37048 ft | 454 kts | 53° |
| 2026-04-27 11:42 | 42.81077 | 85.20252 | 37046 ft | 456 kts | 53° |
| 2026-04-27 11:43 | 42.84572 | 85.27425 | 37046 ft | 457 kts | 53° |
| 2026-04-27 11:43 | 42.88094 | 85.34611 | 37046 ft | 456 kts | 53° |
| 2026-04-27 11:44 | 42.91563 | 85.41800 | 37047 ft | 456 kts | 53° |
| 2026-04-27 11:44 | 42.95049 | 85.48990 | 37046 ft | 455 kts | 53° |
| 2026-04-27 11:45 | 42.97972 | 85.54964 | 37045 ft | 454 kts | 53° |
| 2026-04-27 11:45 | 43.01995 | 85.63311 | 37046 ft | 453 kts | 53° |
| 2026-04-27 11:46 | 43.05434 | 85.70475 | 37046 ft | 451 kts | 53° |
| 2026-04-27 11:46 | 43.08877 | 85.77638 | 37048 ft | 453 kts | 53° |
| 2026-04-27 11:47 | 43.12332 | 85.84821 | 37047 ft | 452 kts | 53° |
| 2026-04-27 11:47 | 43.15772 | 85.91991 | 37047 ft | 452 kts | 53° |
| 2026-04-27 11:48 | 43.19233 | 85.99174 | 37047 ft | 452 kts | 53° |
| 2026-04-27 11:48 | 43.22668 | 86.06343 | 37047 ft | 452 kts | 53° |
| 2026-04-27 11:49 | 43.24386 | 86.09915 | 36627 ft | 449 kts | 53° |
| 2026-04-27 11:49 | 43.26095 | 86.13457 | 35987 ft | 448 kts | 53° |
| 2026-04-27 11:49 | 43.27792 | 86.17021 | 35456 ft | 445 kts | 55° |
| 2026-04-27 11:49 | 43.29288 | 86.20709 | 34909 ft | 444 kts | 62° |
| 2026-04-27 11:50 | 43.30484 | 86.24572 | 34368 ft | 442 kts | 65° |
| 2026-04-27 11:50 | 43.31578 | 86.28466 | 33833 ft | 439 kts | 65° |
| 2026-04-27 11:50 | 43.32688 | 86.32318 | 33297 ft | 436 kts | 65° |
| 2026-04-27 11:50 | 43.33813 | 86.36150 | 32759 ft | 433 kts | 65° |
| 2026-04-27 11:51 | 43.34929 | 86.39994 | 32221 ft | 430 kts | 65° |
| 2026-04-27 11:51 | 43.36002 | 86.43761 | 31692 ft | 427 kts | 66° |
| 2026-04-27 11:51 | 43.38134 | 86.51313 | 30631 ft | 421 kts | 66° |
| 2026-04-27 11:52 | 43.39178 | 86.55018 | 30109 ft | 418 kts | 66° |
| 2026-04-27 11:52 | 43.40221 | 86.58722 | 29586 ft | 415 kts | 66° |
| 2026-04-27 11:52 | 43.41276 | 86.62437 | 29059 ft | 412 kts | 66° |
| 2026-04-27 11:52 | 43.42331 | 86.66054 | 28535 ft | 409 kts | 64° |
| 2026-04-27 11:53 | 43.43596 | 86.69532 | 28011 ft | 404 kts | 57° |
| 2026-04-27 11:53 | 43.45094 | 86.72741 | 27503 ft | 399 kts | 53° |
| 2026-04-27 11:53 | 43.46621 | 86.75887 | 27003 ft | 396 kts | 54° |
| 2026-04-27 11:53 | 43.48120 | 86.79057 | 26498 ft | 393 kts | 54° |
| 2026-04-27 11:54 | 43.49583 | 86.82159 | 26006 ft | 390 kts | 54° |
| 2026-04-27 11:54 | 43.51057 | 86.85252 | 25512 ft | 387 kts | 54° |
| 2026-04-27 11:54 | 43.52537 | 86.88344 | 25019 ft | 384 kts | 54° |
| 2026-04-27 11:54 | 43.53993 | 86.91399 | 24529 ft | 381 kts | 54° |
| 2026-04-27 11:55 | 43.55420 | 86.94411 | 24048 ft | 378 kts | 54° |
| 2026-04-27 11:55 | 43.56855 | 86.97437 | 23562 ft | 375 kts | 54° |
| 2026-04-27 11:55 | 43.58284 | 87.00446 | 23080 ft | 372 kts | 54° |
| 2026-04-27 11:55 | 43.59692 | 87.03412 | 22604 ft | 369 kts | 54° |
| 2026-04-27 11:56 | 43.61087 | 87.06353 | 22132 ft | 366 kts | 54° |
| 2026-04-27 11:56 | 43.62467 | 87.09265 | 21658 ft | 364 kts | 54° |
| 2026-04-27 11:56 | 43.63841 | 87.12174 | 21132 ft | 363 kts | 54° |
| 2026-04-27 11:56 | 43.65205 | 87.15073 | 20659 ft | 360 kts | 54° |
| 2026-04-27 11:57 | 43.66552 | 87.17934 | 20198 ft | 357 kts | 54° |
| 2026-04-27 11:57 | 43.67907 | 87.20816 | 19736 ft | 354 kts | 54° |
| 2026-04-27 11:57 | 43.69239 | 87.23652 | 19281 ft | 352 kts | 54° |
| 2026-04-27 11:57 | 43.70558 | 87.26461 | 18848 ft | 348 kts | 54° |
| 2026-04-27 11:58 | 43.71870 | 87.29260 | 18428 ft | 344 kts | 54° |
| 2026-04-27 11:58 | 43.73154 | 87.32000 | 17992 ft | 342 kts | 54° |
| 2026-04-27 11:58 | 43.74437 | 87.34740 | 17553 ft | 339 kts | 54° |
| 2026-04-27 11:58 | 43.75706 | 87.37454 | 17117 ft | 336 kts | 54° |
| 2026-04-27 11:59 | 43.76962 | 87.40140 | 16684 ft | 334 kts | 54° |
| 2026-04-27 11:59 | 43.78216 | 87.42807 | 16247 ft | 331 kts | 52° |
| 2026-04-27 11:59 | 43.79756 | 87.45094 | 15811 ft | 323 kts | 32° |
| 2026-04-27 11:59 | 43.81749 | 87.46372 | 15404 ft | 313 kts | 9° |
| 2026-04-27 12:00 | 43.83903 | 87.46738 | 14993 ft | 308 kts | 1° |
| 2026-04-27 12:00 | 43.86002 | 87.46938 | 14589 ft | 305 kts | 2° |
| 2026-04-27 12:00 | 43.88100 | 87.47186 | 14193 ft | 303 kts | 2° |
| 2026-04-27 12:00 | 43.90185 | 87.47415 | 13799 ft | 300 kts | 1° |
| 2026-04-27 12:01 | 43.92175 | 87.47617 | 13423 ft | 297 kts | 1° |
| 2026-04-27 12:01 | 43.94212 | 87.47825 | 13038 ft | 295 kts | 1° |
| 2026-04-27 12:01 | 43.96237 | 87.48029 | 12670 ft | 296 kts | 1° |
| 2026-04-27 12:01 | 43.98269 | 87.48233 | 12445 ft | 288 kts | 1° |
| 2026-04-27 12:02 | 44.00218 | 87.48521 | 12355 ft | 276 kts | 11° |
| 2026-04-27 12:02 | 44.01905 | 87.49659 | 12198 ft | 272 kts | 39° |
| 2026-04-27 12:02 | 44.03018 | 87.51747 | 11892 ft | 273 kts | 64° |
| 2026-04-27 12:02 | 44.03612 | 87.54234 | 11577 ft | 272 kts | 72° |
| 2026-04-27 12:03 | 44.04148 | 87.56770 | 11208 ft | 271 kts | 70° |
| 2026-04-27 12:03 | 44.04696 | 87.59258 | 10894 ft | 269 kts | 70° |
| 2026-04-27 12:03 | 44.05224 | 87.61718 | 10588 ft | 267 kts | 71° |
| 2026-04-27 12:03 | 44.05750 | 87.64185 | 10296 ft | 263 kts | 71° |
| 2026-04-27 12:04 | 44.06264 | 87.66604 | 9982 ft | 257 kts | 71° |
| 2026-04-27 12:04 | 44.06762 | 87.68949 | 9688 ft | 250 kts | 71° |
| 2026-04-27 12:04 | 44.07245 | 87.71234 | 9408 ft | 244 kts | 71° |
| 2026-04-27 12:04 | 44.07717 | 87.73470 | 9120 ft | 238 kts | 71° |
| 2026-04-27 12:05 | 44.08176 | 87.75643 | 8851 ft | 232 kts | 71° |
| 2026-04-27 12:05 | 44.08622 | 87.77756 | 8610 ft | 225 kts | 71° |
| 2026-04-27 12:05 | 44.09059 | 87.79828 | 8377 ft | 222 kts | 71° |
| 2026-04-27 12:05 | 44.09394 | 87.81925 | 8115 ft | 226 kts | 87° |
| 2026-04-27 12:06 | 44.09059 | 87.84027 | 7863 ft | 225 kts | 118° |
| 2026-04-27 12:06 | 44.08052 | 87.85664 | 7607 ft | 228 kts | 144° |
| 2026-04-27 12:06 | 44.06617 | 87.86565 | 7353 ft | 227 kts | 166° |
| 2026-04-27 12:06 | 44.05102 | 87.87128 | 7081 ft | 226 kts | 164° |
| 2026-04-27 12:07 | 44.03567 | 87.87566 | 6830 ft | 223 kts | 181° |
| 2026-04-27 12:07 | 44.02145 | 87.87060 | 6764 ft | 202 kts | 211° |
| 2026-04-27 12:07 | 44.01075 | 87.85867 | 6535 ft | 199 kts | 233° |
| 2026-04-27 12:07 | 44.00443 | 87.84198 | 6332 ft | 193 kts | 254° |
| 2026-04-27 12:08 | 44.00027 | 87.82428 | 6110 ft | 197 kts | 253° |
| 2026-04-27 12:08 | 43.99585 | 87.80639 | 5931 ft | 188 kts | 253° |
| 2026-04-27 12:08 | 43.99144 | 87.78970 | 5853 ft | 183 kts | 246° |
| 2026-04-27 12:08 | 43.98551 | 87.77426 | 5744 ft | 181 kts | 244° |
| 2026-04-27 12:09 | 43.97947 | 87.75848 | 5618 ft | 185 kts | 244° |
| 2026-04-27 12:09 | 43.97359 | 87.74271 | 5439 ft | 185 kts | 244° |
| 2026-04-27 12:09 | 43.96766 | 87.72705 | 5267 ft | 180 kts | 244° |
| 2026-04-27 12:09 | 43.96175 | 87.71172 | 5112 ft | 180 kts | 244° |
| 2026-04-27 12:10 | 43.95603 | 87.69662 | 4980 ft | 175 kts | 244° |
| 2026-04-27 12:10 | 43.95041 | 87.68146 | 4824 ft | 177 kts | 245° |
| 2026-04-27 12:10 | 43.94539 | 87.66626 | 4544 ft | 167 kts | 250° |
| 2026-04-27 12:10 | 43.94139 | 87.65112 | 4274 ft | 168 kts | 255° |
| 2026-04-27 12:11 | 43.93816 | 87.63563 | 3992 ft | 167 kts | 257° |
| 2026-04-27 12:11 | 43.93532 | 87.61977 | 3728 ft | 169 kts | 258° |
| 2026-04-27 12:11 | 43.93260 | 87.60437 | 3613 ft | 168 kts | 259° |
| 2026-04-27 12:11 | 43.93026 | 87.58837 | 3557 ft | 169 kts | 258° |
| 2026-04-27 12:12 | 43.92728 | 87.57264 | 3426 ft | 167 kts | 257° |
| 2026-04-27 12:12 | 43.92421 | 87.55710 | 3204 ft | 170 kts | 256° |
| 2026-04-27 12:12 | 43.92098 | 87.54123 | 2908 ft | 166 kts | 257° |
| 2026-04-27 12:12 | 43.91815 | 87.52622 | 2619 ft | 165 kts | 256° |
| 2026-04-27 12:13 | 43.91477 | 87.51063 | 2379 ft | 166 kts | 255° |
| 2026-04-27 12:13 | 43.91164 | 87.49560 | 2161 ft | 161 kts | 256° |
| 2026-04-27 12:13 | 43.90884 | 87.48201 | 2135 ft | 115 kts | 254° |
| 2026-04-27 12:13 | 43.90717 | 87.47428 | 2134 ft | 57 kts | 253° |
| 2026-04-27 12:14 | 43.90635 | 87.47041 | 2134 ft | 32 kts | 253° |
| 2026-04-27 12:14 | 43.90568 | 87.46730 | 2134 ft | 34 kts | 254° |
| 2026-04-27 12:14 | 43.90498 | 87.46396 | 2134 ft | 36 kts | 253° |
| 2026-04-27 12:14 | 43.90426 | 87.46056 | 2134 ft | 34 kts | 253° |
| 2026-04-27 12:15 | 43.90359 | 87.45808 | 2134 ft | 18 kts | 212° |
| 2026-04-27 12:15 | 43.90250 | 87.45831 | 2134 ft | 15 kts | 165° |
| 2026-04-27 12:15 | 43.90126 | 87.45880 | 2134 ft | 21 kts | 163° |
| 2026-04-27 12:15 | 43.89962 | 87.45950 | 2134 ft | 25 kts | 164° |
| 2026-04-27 12:16 | 43.89825 | 87.46005 | 2134 ft | 16 kts | 165° |
| 2026-04-27 12:16 | 43.89784 | 87.46094 | 2134 ft | 11 kts | 91° |
| 2026-04-27 12:16 | 43.89784 | 87.46214 | 2134 ft | 13 kts | 90° |
| 2026-04-27 12:16 | 43.89784 | 87.46343 | 2134 ft | 7 kts | 90° |
| 2026-04-27 12:17 | 43.89777 | 87.46395 | 2134 ft | 3 kts | 145° |
| 2026-04-27 12:17 | 43.89754 | 87.46399 | 2134 ft | 2 kts | 179° |
| 2026-04-27 12:17 | 43.89740 | 87.46399 | 2134 ft | 0 kts | 179° |